sensor_id;sensor_type;location;lat;lon;timestamp;temperature;humidity
15160;DHT22;7680;48.800;9.680;2023-11-19T00:01:48;7.20;99.90
15160;DHT22;7680;48.800;9.680;2023-11-19T00:06:51;7.20;99.90
15160;DHT22;7680;48.800;9.680;2023-11-19T00:11:56;7.30;99.90
15160;DHT22;7680;48.800;9.680;2023-11-19T00:16:59;7.60;99.90
15160;DHT22;7680;48.800;9.680;2023-11-19T00:22:02;7.70;99.90
15160;DHT22;7680;48.800;9.680;2023-11-19T00:27:07;7.70;99.90
15160;DHT22;7680;48.800;9.680;2023-11-19T00:32:10;7.70;99.90
15160;DHT22;7680;48.800;9.680;2023-11-19T00:37:13;7.70;99.90
15160;DHT22;7680;48.800;9.680;2023-11-19T00:42:18;7.70;99.90
15160;DHT22;7680;48.800;9.680;2023-11-19T00:47:22;7.70;99.90
15160;DHT22;7680;48.800;9.680;2023-11-19T00:52:25;7.70;99.90
15160;DHT22;7680;48.800;9.680;2023-11-19T00:57:30;7.80;99.90
15160;DHT22;7680;48.800;9.680;2023-11-19T01:02:34;7.90;99.90
15160;DHT22;7680;48.800;9.680;2023-11-19T01:07:37;7.90;99.90
15160;DHT22;7680;48.800;9.680;2023-11-19T01:12:42;7.90;99.90
15160;DHT22;7680;48.800;9.680;2023-11-19T01:17:45;7.90;99.90
15160;DHT22;7680;48.800;9.680;2023-11-19T01:22:51;8.10;99.90
15160;DHT22;7680;48.800;9.680;2023-11-19T01:27:56;8.10;99.90
15160;DHT22;7680;48.800;9.680;2023-11-19T01:33:03;8.10;99.90
15160;DHT22;7680;48.800;9.680;2023-11-19T01:38:12;8.20;99.90
15160;DHT22;7680;48.800;9.680;2023-11-19T01:43:35;8.30;99.90
15160;DHT22;7680;48.800;9.680;2023-11-19T01:48:42;8.20;99.90
15160;DHT22;7680;48.800;9.680;2023-11-19T01:53:47;8.30;99.90
15160;DHT22;7680;48.800;9.680;2023-11-19T01:58:53;8.30;99.90
15160;DHT22;7680;48.800;9.680;2023-11-19T02:03:57;8.30;99.90
15160;DHT22;7680;48.800;9.680;2023-11-19T02:09:01;8.30;99.90
15160;DHT22;7680;48.800;9.680;2023-11-19T02:14:10;8.30;99.90
15160;DHT22;7680;48.800;9.680;2023-11-19T02:19:14;8.40;99.90
15160;DHT22;7680;48.800;9.680;2023-11-19T02:24:21;8.40;99.90
15160;DHT22;7680;48.800;9.680;2023-11-19T02:29:26;8.40;99.90
15160;DHT22;7680;48.800;9.680;2023-11-19T02:34:30;8.40;99.90
15160;DHT22;7680;48.800;9.680;2023-11-19T02:39:33;8.40;99.90
15160;DHT22;7680;48.800;9.680;2023-11-19T02:44:37;8.40;99.90
15160;DHT22;7680;48.800;9.680;2023-11-19T02:49:41;8.40;99.90
15160;DHT22;7680;48.800;9.680;2023-11-19T02:54:44;8.50;99.90
15160;DHT22;7680;48.800;9.680;2023-11-19T02:59:49;8.50;99.90
15160;DHT22;7680;48.800;9.680;2023-11-19T03:04:52;8.50;99.90
15160;DHT22;7680;48.800;9.680;2023-11-19T03:09:55;8.50;99.90
15160;DHT22;7680;48.800;9.680;2023-11-19T03:15:00;8.50;99.90
15160;DHT22;7680;48.800;9.680;2023-11-19T03:20:05;8.50;99.90
15160;DHT22;7680;48.800;9.680;2023-11-19T03:25:11;8.50;99.90
15160;DHT22;7680;48.800;9.680;2023-11-19T03:30:16;8.60;99.90
15160;DHT22;7680;48.800;9.680;2023-11-19T03:35:20;8.60;99.90
15160;DHT22;7680;48.800;9.680;2023-11-19T03:40:23;8.60;99.90
15160;DHT22;7680;48.800;9.680;2023-11-19T03:45:28;8.60;99.90
15160;DHT22;7680;48.800;9.680;2023-11-19T03:50:31;8.60;99.90
15160;DHT22;7680;48.800;9.680;2023-11-19T03:55:35;8.70;99.90
15160;DHT22;7680;48.800;9.680;2023-11-19T04:00:39;8.70;99.90
15160;DHT22;7680;48.800;9.680;2023-11-19T04:05:42;8.60;99.90
15160;DHT22;7680;48.800;9.680;2023-11-19T04:10:46;8.60;99.90
15160;DHT22;7680;48.800;9.680;2023-11-19T04:15:51;8.60;99.90
15160;DHT22;7680;48.800;9.680;2023-11-19T04:20:54;8.60;99.90
15160;DHT22;7680;48.800;9.680;2023-11-19T04:25:57;8.60;99.90
15160;DHT22;7680;48.800;9.680;2023-11-19T04:31:13;8.70;99.90
15160;DHT22;7680;48.800;9.680;2023-11-19T04:36:18;8.70;99.90
15160;DHT22;7680;48.800;9.680;2023-11-19T04:41:22;8.70;99.90
15160;DHT22;7680;48.800;9.680;2023-11-19T04:46:27;8.80;99.90
15160;DHT22;7680;48.800;9.680;2023-11-19T04:51:30;8.90;99.90
15160;DHT22;7680;48.800;9.680;2023-11-19T04:56:33;9.10;99.90
15160;DHT22;7680;48.800;9.680;2023-11-19T05:01:38;9.30;99.90
15160;DHT22;7680;48.800;9.680;2023-11-19T05:06:41;9.40;99.90
15160;DHT22;7680;48.800;9.680;2023-11-19T05:11:44;9.40;99.90
15160;DHT22;7680;48.800;9.680;2023-11-19T05:16:52;9.50;99.90
15160;DHT22;7680;48.800;9.680;2023-11-19T05:21:55;9.60;99.90
15160;DHT22;7680;48.800;9.680;2023-11-19T05:26:59;9.70;99.90
15160;DHT22;7680;48.800;9.680;2023-11-19T05:32:03;9.80;99.90
15160;DHT22;7680;48.800;9.680;2023-11-19T05:37:07;9.80;99.90
15160;DHT22;7680;48.800;9.680;2023-11-19T05:42:12;9.80;99.90
15160;DHT22;7680;48.800;9.680;2023-11-19T05:47:17;9.90;99.90
15160;DHT22;7680;48.800;9.680;2023-11-19T05:52:20;9.90;99.90
15160;DHT22;7680;48.800;9.680;2023-11-19T05:57:24;9.90;99.90
15160;DHT22;7680;48.800;9.680;2023-11-19T06:02:30;10.10;99.90
15160;DHT22;7680;48.800;9.680;2023-11-19T06:07:35;10.20;99.90
15160;DHT22;7680;48.800;9.680;2023-11-19T06:12:40;10.20;99.90
15160;DHT22;7680;48.800;9.680;2023-11-19T06:17:45;10.30;99.90
15160;DHT22;7680;48.800;9.680;2023-11-19T06:22:48;10.30;99.90
15160;DHT22;7680;48.800;9.680;2023-11-19T06:27:52;10.30;99.90
15160;DHT22;7680;48.800;9.680;2023-11-19T06:32:56;10.30;99.90
15160;DHT22;7680;48.800;9.680;2023-11-19T06:37:59;10.40;99.90
15160;DHT22;7680;48.800;9.680;2023-11-19T06:43:03;10.40;99.90
15160;DHT22;7680;48.800;9.680;2023-11-19T06:48:08;10.50;99.90
15160;DHT22;7680;48.800;9.680;2023-11-19T06:53:11;10.60;99.90
15160;DHT22;7680;48.800;9.680;2023-11-19T06:58:14;10.60;99.90
15160;DHT22;7680;48.800;9.680;2023-11-19T07:03:20;10.60;99.90
15160;DHT22;7680;48.800;9.680;2023-11-19T07:08:23;10.70;99.90
15160;DHT22;7680;48.800;9.680;2023-11-19T07:13:27;10.70;99.90
15160;DHT22;7680;48.800;9.680;2023-11-19T07:18:31;10.80;99.90
15160;DHT22;7680;48.800;9.680;2023-11-19T07:23:37;10.90;99.90
15160;DHT22;7680;48.800;9.680;2023-11-19T07:28:40;11.00;99.90
15160;DHT22;7680;48.800;9.680;2023-11-19T07:33:45;10.90;99.90
15160;DHT22;7680;48.800;9.680;2023-11-19T07:38:49;10.80;99.90
15160;DHT22;7680;48.800;9.680;2023-11-19T07:43:52;11.00;99.90
15160;DHT22;7680;48.800;9.680;2023-11-19T07:48:57;11.10;99.90
15160;DHT22;7680;48.800;9.680;2023-11-19T07:54:00;11.10;99.90
15160;DHT22;7680;48.800;9.680;2023-11-19T07:59:04;11.10;99.90
15160;DHT22;7680;48.800;9.680;2023-11-19T08:04:08;11.00;99.90
15160;DHT22;7680;48.800;9.680;2023-11-19T08:09:12;11.10;99.90
15160;DHT22;7680;48.800;9.680;2023-11-19T08:14:16;11.20;99.90
15160;DHT22;7680;48.800;9.680;2023-11-19T08:19:21;11.20;99.90
15160;DHT22;7680;48.800;9.680;2023-11-19T08:24:24;11.20;99.90
15160;DHT22;7680;48.800;9.680;2023-11-19T08:29:27;11.30;99.90
15160;DHT22;7680;48.800;9.680;2023-11-19T08:34:32;11.40;99.90
15160;DHT22;7680;48.800;9.680;2023-11-19T08:39:35;11.60;99.90
15160;DHT22;7680;48.800;9.680;2023-11-19T08:44:39;11.60;99.90
15160;DHT22;7680;48.800;9.680;2023-11-19T08:49:46;11.70;99.90
15160;DHT22;7680;48.800;9.680;2023-11-19T08:55:05;12.00;99.90
15160;DHT22;7680;48.800;9.680;2023-11-19T09:00:09;12.20;99.90
15160;DHT22;7680;48.800;9.680;2023-11-19T09:05:17;12.40;99.90
15160;DHT22;7680;48.800;9.680;2023-11-19T09:10:20;12.40;99.90
15160;DHT22;7680;48.800;9.680;2023-11-19T09:15:23;12.40;99.90
15160;DHT22;7680;48.800;9.680;2023-11-19T09:20:28;12.30;99.90
15160;DHT22;7680;48.800;9.680;2023-11-19T09:25:39;12.30;99.90
15160;DHT22;7680;48.800;9.680;2023-11-19T09:30:45;12.30;99.90
15160;DHT22;7680;48.800;9.680;2023-11-19T09:35:50;12.40;99.90
15160;DHT22;7680;48.800;9.680;2023-11-19T09:40:53;12.70;99.90
15160;DHT22;7680;48.800;9.680;2023-11-19T09:45:56;12.90;99.90
15160;DHT22;7680;48.800;9.680;2023-11-19T09:51:02;12.80;99.90
15160;DHT22;7680;48.800;9.680;2023-11-19T09:56:06;12.60;99.90
15160;DHT22;7680;48.800;9.680;2023-11-19T10:01:11;12.50;99.90
15160;DHT22;7680;48.800;9.680;2023-11-19T10:06:19;12.40;99.90
15160;DHT22;7680;48.800;9.680;2023-11-19T10:11:22;12.30;99.90
15160;DHT22;7680;48.800;9.680;2023-11-19T10:16:29;12.20;99.90
15160;DHT22;7680;48.800;9.680;2023-11-19T10:21:35;12.50;99.90
15160;DHT22;7680;48.800;9.680;2023-11-19T10:26:40;12.80;99.90
15160;DHT22;7680;48.800;9.680;2023-11-19T10:31:56;13.00;99.90
15160;DHT22;7680;48.800;9.680;2023-11-19T10:37:30;13.20;99.90
15160;DHT22;7680;48.800;9.680;2023-11-19T10:42:34;13.50;99.90
15160;DHT22;7680;48.800;9.680;2023-11-19T10:47:39;13.60;99.90
15160;DHT22;7680;48.800;9.680;2023-11-19T10:52:47;13.90;99.90
15160;DHT22;7680;48.800;9.680;2023-11-19T10:57:51;13.90;99.90
15160;DHT22;7680;48.800;9.680;2023-11-19T11:03:00;13.70;99.90
15160;DHT22;7680;48.800;9.680;2023-11-19T11:08:06;13.80;99.90
15160;DHT22;7680;48.800;9.680;2023-11-19T11:13:11;13.90;99.90
15160;DHT22;7680;48.800;9.680;2023-11-19T11:18:16;14.20;99.90
15160;DHT22;7680;48.800;9.680;2023-11-19T11:29:09;14.20;99.90
15160;DHT22;7680;48.800;9.680;2023-11-19T11:34:30;14.20;99.90
15160;DHT22;7680;48.800;9.680;2023-11-19T11:39:46;14.20;99.90
15160;DHT22;7680;48.800;9.680;2023-11-19T11:44:59;14.30;99.90
15160;DHT22;7680;48.800;9.680;2023-11-19T11:50:07;14.30;99.90
15160;DHT22;7680;48.800;9.680;2023-11-19T11:55:15;14.20;99.90
15160;DHT22;7680;48.800;9.680;2023-11-19T12:00:22;14.20;99.90
15160;DHT22;7680;48.800;9.680;2023-11-19T12:05:25;14.30;99.90
15160;DHT22;7680;48.800;9.680;2023-11-19T12:10:31;14.40;99.90
15160;DHT22;7680;48.800;9.680;2023-11-19T12:16:08;14.30;99.90
15160;DHT22;7680;48.800;9.680;2023-11-19T12:21:27;14.10;99.90
15160;DHT22;7680;48.800;9.680;2023-11-19T12:26:34;13.80;99.90
15160;DHT22;7680;48.800;9.680;2023-11-19T12:31:44;13.70;99.90
15160;DHT22;7680;48.800;9.680;2023-11-19T12:36:47;13.80;99.90
15160;DHT22;7680;48.800;9.680;2023-11-19T12:41:52;14.10;99.90
15160;DHT22;7680;48.800;9.680;2023-11-19T12:47:02;14.40;99.90
15160;DHT22;7680;48.800;9.680;2023-11-19T12:52:12;14.80;99.90
15160;DHT22;7680;48.800;9.680;2023-11-19T12:57:17;15.00;99.90
15160;DHT22;7680;48.800;9.680;2023-11-19T13:02:21;15.10;99.90
15160;DHT22;7680;48.800;9.680;2023-11-19T13:07:25;15.30;99.90
15160;DHT22;7680;48.800;9.680;2023-11-19T13:12:29;15.40;99.90
15160;DHT22;7680;48.800;9.680;2023-11-19T13:17:32;15.10;99.90
15160;DHT22;7680;48.800;9.680;2023-11-19T13:22:35;15.00;99.90
15160;DHT22;7680;48.800;9.680;2023-11-19T13:27:45;14.90;99.90
15160;DHT22;7680;48.800;9.680;2023-11-19T13:32:49;14.90;99.90
15160;DHT22;7680;48.800;9.680;2023-11-19T13:37:53;14.70;99.90
15160;DHT22;7680;48.800;9.680;2023-11-19T13:42:57;14.70;99.90
15160;DHT22;7680;48.800;9.680;2023-11-19T13:48:00;14.50;99.90
15160;DHT22;7680;48.800;9.680;2023-11-19T13:53:03;14.40;99.90
15160;DHT22;7680;48.800;9.680;2023-11-19T13:58:08;14.40;99.90
15160;DHT22;7680;48.800;9.680;2023-11-19T14:03:12;14.40;99.90
15160;DHT22;7680;48.800;9.680;2023-11-19T14:08:15;14.30;99.90
15160;DHT22;7680;48.800;9.680;2023-11-19T14:13:28;14.20;99.90
15160;DHT22;7680;48.800;9.680;2023-11-19T14:18:33;14.10;99.90
15160;DHT22;7680;48.800;9.680;2023-11-19T14:23:37;14.00;99.90
15160;DHT22;7680;48.800;9.680;2023-11-19T14:28:44;14.00;99.90
15160;DHT22;7680;48.800;9.680;2023-11-19T14:33:50;14.00;99.90
15160;DHT22;7680;48.800;9.680;2023-11-19T14:38:55;13.90;99.90
15160;DHT22;7680;48.800;9.680;2023-11-19T14:44:01;13.60;99.90
15160;DHT22;7680;48.800;9.680;2023-11-19T14:49:05;13.50;99.90
15160;DHT22;7680;48.800;9.680;2023-11-19T14:54:09;13.30;99.90
15160;DHT22;7680;48.800;9.680;2023-11-19T14:59:14;13.10;99.90
15160;DHT22;7680;48.800;9.680;2023-11-19T15:04:17;12.90;99.90
15160;DHT22;7680;48.800;9.680;2023-11-19T15:09:20;12.70;99.90
15160;DHT22;7680;48.800;9.680;2023-11-19T15:14:25;12.50;99.90
15160;DHT22;7680;48.800;9.680;2023-11-19T15:19:28;12.20;99.90
15160;DHT22;7680;48.800;9.680;2023-11-19T15:24:31;12.00;99.90
15160;DHT22;7680;48.800;9.680;2023-11-19T15:29:36;11.90;99.90
15160;DHT22;7680;48.800;9.680;2023-11-19T15:34:41;11.70;99.90
15160;DHT22;7680;48.800;9.680;2023-11-19T15:39:44;11.60;99.90
15160;DHT22;7680;48.800;9.680;2023-11-19T15:44:50;11.40;99.90
15160;DHT22;7680;48.800;9.680;2023-11-19T15:49:53;11.30;99.90
15160;DHT22;7680;48.800;9.680;2023-11-19T15:54:56;11.10;99.90
15160;DHT22;7680;48.800;9.680;2023-11-19T16:00:00;10.90;99.90
15160;DHT22;7680;48.800;9.680;2023-11-19T16:05:04;10.80;99.90
15160;DHT22;7680;48.800;9.680;2023-11-19T16:10:14;10.80;99.90
15160;DHT22;7680;48.800;9.680;2023-11-19T16:15:19;10.80;99.90
15160;DHT22;7680;48.800;9.680;2023-11-19T16:20:25;10.80;99.90
15160;DHT22;7680;48.800;9.680;2023-11-19T16:25:28;10.70;99.90
15160;DHT22;7680;48.800;9.680;2023-11-19T16:30:33;10.60;99.90
15160;DHT22;7680;48.800;9.680;2023-11-19T16:35:37;10.50;99.90
15160;DHT22;7680;48.800;9.680;2023-11-19T16:40:41;10.40;99.90
15160;DHT22;7680;48.800;9.680;2023-11-19T16:45:45;10.40;99.90
15160;DHT22;7680;48.800;9.680;2023-11-19T16:50:49;10.30;99.90
15160;DHT22;7680;48.800;9.680;2023-11-19T16:55:55;10.10;99.90
15160;DHT22;7680;48.800;9.680;2023-11-19T17:00:59;10.00;99.90
15160;DHT22;7680;48.800;9.680;2023-11-19T17:06:02;10.00;99.90
15160;DHT22;7680;48.800;9.680;2023-11-19T17:11:06;10.00;99.90
15160;DHT22;7680;48.800;9.680;2023-11-19T17:16:11;10.00;99.90
15160;DHT22;7680;48.800;9.680;2023-11-19T17:21:14;9.90;99.90
15160;DHT22;7680;48.800;9.680;2023-11-19T17:26:18;9.90;99.90
15160;DHT22;7680;48.800;9.680;2023-11-19T17:31:23;9.80;99.90
15160;DHT22;7680;48.800;9.680;2023-11-19T17:36:26;9.70;99.90
15160;DHT22;7680;48.800;9.680;2023-11-19T17:41:29;9.60;99.90
15160;DHT22;7680;48.800;9.680;2023-11-19T17:46:34;9.60;99.90
15160;DHT22;7680;48.800;9.680;2023-11-19T17:51:38;9.50;99.90
15160;DHT22;7680;48.800;9.680;2023-11-19T17:56:41;9.60;99.90
15160;DHT22;7680;48.800;9.680;2023-11-19T18:01:46;9.60;99.90
15160;DHT22;7680;48.800;9.680;2023-11-19T18:06:49;9.50;99.90
15160;DHT22;7680;48.800;9.680;2023-11-19T18:11:52;9.50;99.90
15160;DHT22;7680;48.800;9.680;2023-11-19T18:17:06;9.60;99.90
15160;DHT22;7680;48.800;9.680;2023-11-19T18:22:12;9.60;99.90
15160;DHT22;7680;48.800;9.680;2023-11-19T18:27:18;9.60;99.90
15160;DHT22;7680;48.800;9.680;2023-11-19T18:32:22;9.70;99.90
15160;DHT22;7680;48.800;9.680;2023-11-19T18:37:26;9.90;99.90
15160;DHT22;7680;48.800;9.680;2023-11-19T18:42:29;10.00;99.90
15160;DHT22;7680;48.800;9.680;2023-11-19T18:47:36;10.10;99.90
15160;DHT22;7680;48.800;9.680;2023-11-19T18:52:40;10.20;99.90
15160;DHT22;7680;48.800;9.680;2023-11-19T18:57:46;10.40;99.90
15160;DHT22;7680;48.800;9.680;2023-11-19T19:02:52;10.50;99.90
15160;DHT22;7680;48.800;9.680;2023-11-19T19:08:00;10.60;99.90
15160;DHT22;7680;48.800;9.680;2023-11-19T19:13:04;10.70;99.90
15160;DHT22;7680;48.800;9.680;2023-11-19T19:18:11;10.70;99.90
15160;DHT22;7680;48.800;9.680;2023-11-19T19:23:14;10.80;99.90
15160;DHT22;7680;48.800;9.680;2023-11-19T19:28:20;10.90;99.90
15160;DHT22;7680;48.800;9.680;2023-11-19T19:33:26;11.00;99.90
15160;DHT22;7680;48.800;9.680;2023-11-19T19:38:29;11.00;99.90
15160;DHT22;7680;48.800;9.680;2023-11-19T19:43:32;10.90;99.90
15160;DHT22;7680;48.800;9.680;2023-11-19T19:48:42;10.70;99.90
15160;DHT22;7680;48.800;9.680;2023-11-19T19:53:45;10.50;99.90
15160;DHT22;7680;48.800;9.680;2023-11-19T19:58:49;10.30;99.90
15160;DHT22;7680;48.800;9.680;2023-11-19T20:04:03;10.20;99.90
15160;DHT22;7680;48.800;9.680;2023-11-19T20:09:09;10.20;99.90
15160;DHT22;7680;48.800;9.680;2023-11-19T20:14:18;10.10;99.90
15160;DHT22;7680;48.800;9.680;2023-11-19T20:19:27;10.10;99.90
15160;DHT22;7680;48.800;9.680;2023-11-19T20:24:32;10.10;99.90
15160;DHT22;7680;48.800;9.680;2023-11-19T20:29:35;10.20;99.90
15160;DHT22;7680;48.800;9.680;2023-11-19T20:34:44;10.20;99.90
15160;DHT22;7680;48.800;9.680;2023-11-19T20:39:47;10.10;99.90
15160;DHT22;7680;48.800;9.680;2023-11-19T20:44:50;10.10;99.90
15160;DHT22;7680;48.800;9.680;2023-11-19T20:49:56;10.10;99.90
15160;DHT22;7680;48.800;9.680;2023-11-19T20:54:59;10.10;99.90
15160;DHT22;7680;48.800;9.680;2023-11-19T21:00:05;10.20;99.90
15160;DHT22;7680;48.800;9.680;2023-11-19T21:05:12;10.10;99.90
15160;DHT22;7680;48.800;9.680;2023-11-19T21:10:15;10.10;99.90
15160;DHT22;7680;48.800;9.680;2023-11-19T21:15:18;10.00;99.90
15160;DHT22;7680;48.800;9.680;2023-11-19T21:20:23;10.00;99.90
15160;DHT22;7680;48.800;9.680;2023-11-19T21:25:26;10.10;99.90
15160;DHT22;7680;48.800;9.680;2023-11-19T21:30:31;10.00;99.90
15160;DHT22;7680;48.800;9.680;2023-11-19T21:35:36;10.00;99.90
15160;DHT22;7680;48.800;9.680;2023-11-19T21:40:39;10.00;99.90
15160;DHT22;7680;48.800;9.680;2023-11-19T21:45:43;9.90;99.90
15160;DHT22;7680;48.800;9.680;2023-11-19T21:50:47;9.80;99.90
15160;DHT22;7680;48.800;9.680;2023-11-19T21:55:50;9.80;99.90
15160;DHT22;7680;48.800;9.680;2023-11-19T22:01:13;9.70;99.90
15160;DHT22;7680;48.800;9.680;2023-11-19T22:06:18;9.60;99.90
15160;DHT22;7680;48.800;9.680;2023-11-19T22:11:21;9.60;99.90
15160;DHT22;7680;48.800;9.680;2023-11-19T22:16:25;9.60;99.90
15160;DHT22;7680;48.800;9.680;2023-11-19T22:21:30;9.60;99.90
15160;DHT22;7680;48.800;9.680;2023-11-19T22:26:33;9.60;99.90
15160;DHT22;7680;48.800;9.680;2023-11-19T22:31:36;9.60;99.90
15160;DHT22;7680;48.800;9.680;2023-11-19T22:36:41;9.60;99.90
15160;DHT22;7680;48.800;9.680;2023-11-19T22:41:45;9.50;99.90
15160;DHT22;7680;48.800;9.680;2023-11-19T22:46:48;9.30;99.90
15160;DHT22;7680;48.800;9.680;2023-11-19T22:51:52;9.20;99.90
15160;DHT22;7680;48.800;9.680;2023-11-19T22:56:55;9.00;99.90
15160;DHT22;7680;48.800;9.680;2023-11-19T23:01:58;8.90;99.90
15160;DHT22;7680;48.800;9.680;2023-11-19T23:07:03;8.80;99.90
15160;DHT22;7680;48.800;9.680;2023-11-19T23:12:08;8.70;99.90
15160;DHT22;7680;48.800;9.680;2023-11-19T23:17:12;8.60;99.90
15160;DHT22;7680;48.800;9.680;2023-11-19T23:22:20;8.50;99.90
15160;DHT22;7680;48.800;9.680;2023-11-19T23:27:27;8.40;99.90
15160;DHT22;7680;48.800;9.680;2023-11-19T23:32:30;8.20;99.90
15160;DHT22;7680;48.800;9.680;2023-11-19T23:37:35;8.10;99.90
15160;DHT22;7680;48.800;9.680;2023-11-19T23:42:38;8.00;99.90
15160;DHT22;7680;48.800;9.680;2023-11-19T23:47:43;7.90;99.90
15160;DHT22;7680;48.800;9.680;2023-11-19T23:52:48;7.80;99.90
15160;DHT22;7680;48.800;9.680;2023-11-19T23:57:51;7.60;99.90
